Time;durP1;ratioP1;P1;durP2;ratioP2;P2;SDS_P1;SDS_P2;PMS_P1;PMS_P2;Temp;Humidity;BMP_temperature;BMP_pressure;BME280_temperature;BME280_humidity;BME280_pressure;Samples;Min_cycle;Max_cycle;Signal;HPM_P1;HPM_P2
2023/06/16 00:00:04;;;;;;;;;;;;;;;;;;7372890;19;1605;-62
2023/06/16 00:02:43;;;;;;;;;;;;;;;;;;7369511;19;738;-63
2023/06/16 00:05:12;;;;;;;;;;;;;;;;;;7369699;19;703;-64
2023/06/16 00:07:40;;;;;;;;;;;;;;;;;;7369349;19;1849;-65
2023/06/16 00:10:08;;;;;;;;;;;;;;;;;;7370365;19;2178;-64
2023/06/16 00:12:36;;;;;;;;;;;;;;;;;;7372320;19;2007;-65
2023/06/16 00:15:05;;;;;;;;;;;;;;;;;;7373772;19;1476;-64
2023/06/16 00:17:44;;;;;;;;;;;;;;;;;;7371152;19;1657;-64
2023/06/16 00:20:12;;;;;;;;;;;;;;;;;;7370598;19;1690;-63
2023/06/16 00:22:41;;;;;;;;;;;;;;;;;;7372897;19;1461;-64
2023/06/16 00:25:09;;;;;;;;;;;;;;;;;;7368567;19;1813;-64
2023/06/16 00:27:38;;;;;;;;;;;;;;;;;;7368614;19;1877;-64
2023/06/16 00:30:06;;;;;;;;;;;;;;;;;;7369451;19;1751;-63
2023/06/16 00:32:34;;;;;;;;;;;;;;;;;;7371692;19;1492;-64
2023/06/16 00:35:02;;;;;;;;;;;;;;;;;;7366996;19;1586;-64
2023/06/16 00:37:31;;;;;;;;;;;;;;;;;;7370656;19;1467;-64
2023/06/16 00:39:59;;;;;;;;;;;;;;;;;;7365600;19;925;-64
2023/06/16 00:42:27;;;;;;;;;;;;;;;;;;7369558;19;1699;-63
2023/06/16 00:44:56;;;;;;;;;;;;;;;;;;7369248;19;2032;-64
2023/06/16 00:47:24;;;;;;;;;;;;;;;;;;7371023;19;1862;-64
2023/06/16 00:49:52;;;;;;;;;;;;;;;;;;7371720;19;1892;-64
2023/06/16 00:52:20;;;;;;;;;;;;;;;;;;7370810;19;2043;-64
2023/06/16 00:54:48;;;;;;;;;;;;;;;;;;7370522;19;1491;-64
2023/06/16 00:57:17;;;;;;;;;;;;;;;;;;7367150;19;1724;-64
2023/06/16 00:59:45;;;;;;;;;;;;;;;;;;7369259;19;1820;-64
2023/06/16 01:02:13;;;;;;;;;;;;;;;;;;7369746;19;1694;-64
2023/06/16 01:04:42;;;;;;;;;;;;;;;;;;7371788;19;1842;-64
2023/06/16 01:07:11;;;;;;;;;;;;;;;;;;7368304;19;2171;-63
2023/06/16 01:09:39;;;;;;;;;;;;;;;;;;7371800;19;1900;-63
2023/06/16 01:12:08;;;;;;;;;;;;;;;;;;7371072;19;1481;-63
2023/06/16 01:14:36;;;;;;;;;;;;;;;;;;7369505;19;1941;-63
2023/06/16 01:17:05;;;;;;;;;;;;;;;;;;7368046;19;1707;-63
2023/06/16 01:19:37;;;;;;;;;;;;;;;;;;7370930;19;1726;-68
2023/06/16 01:22:05;;;;;;;;;;;;;;;;;;7370253;19;1768;-62
2023/06/16 01:24:33;;;;;;;;;;;;;;;;;;7371126;19;1826;-63
2023/06/16 01:27:02;;;;;;;;;;;;;;;;;;7366666;19;1846;-62
2023/06/16 01:29:35;;;;;;;;;;;;;;;;;;7368783;19;1899;-63
2023/06/16 01:32:07;;;;;;;;;;;;;;;;;;7370380;19;1853;-63
2023/06/16 01:34:35;;;;;;;;;;;;;;;;;;7370545;19;1731;-63
2023/06/16 01:37:03;;;;;;;;;;;;;;;;;;7368646;19;1719;-63
2023/06/16 01:39:31;;;;;;;;;;;;;;;;;;7369855;19;1679;-63
2023/06/16 01:41:59;;;;;;;;;;;;;;;;;;7367334;19;1880;-64
2023/06/16 01:44:27;;;;;;;;;;;;;;;;;;7368109;19;1918;-63
2023/06/16 01:46:56;;;;;;;;;;;;;;;;;;7366047;19;1944;-64
2023/06/16 01:49:24;;;;;;;;;;;;;;;;;;7368733;19;1774;-65
2023/06/16 01:51:52;;;;;;;;;;;;;;;;;;7366905;19;772;-63
2023/06/16 01:54:20;;;;;;;;;;;;;;;;;;7365551;19;843;-63
2023/06/16 01:56:48;;;;;;;;;;;;;;;;;;7365885;19;1868;-64
2023/06/16 01:59:16;;;;;;;;;;;;;;;;;;7367738;19;1674;-65
2023/06/16 02:01:45;;;;;;;;;;;;;;;;;;7366304;19;1849;-64
2023/06/16 02:04:13;;;;;;;;;;;;;;;;;;7367307;19;1942;-64
2023/06/16 02:06:41;;;;;;;;;;;;;;;;;;7369088;19;1838;-64
2023/06/16 02:09:11;;;;;;;;;;;;;;;;;;7365888;19;1711;-65
2023/06/16 02:11:40;;;;;;;;;;;;;;;;;;7367962;19;1707;-64
2023/06/16 02:14:08;;;;;;;;;;;;;;;;;;7368647;19;1550;-64
2023/06/16 02:16:36;;;;;;;;;;;;;;;;;;7367625;19;1712;-65
2023/06/16 02:19:04;;;;;;;;;;;;;;;;;;7364447;19;1707;-64
2023/06/16 02:21:33;;;;;;;;;;;;;;;;;;7370286;19;1508;-64
2023/06/16 02:24:01;;;;;;;;;;;;;;;;;;7364582;19;854;-63
2023/06/16 02:26:29;;;;;;;;;;;;;;;;;;7365659;19;1689;-64
2023/06/16 02:28:57;;;;;;;;;;;;;;;;;;7365223;19;1889;-64
2023/06/16 02:31:25;;;;;;;;;;;;;;;;;;7365332;19;1767;-63
2023/06/16 02:33:55;;;;;;;;;;;;;;;;;;7368516;19;1739;-63
2023/06/16 02:36:23;;;;;;;;;;;;;;;;;;7366268;19;1849;-64
2023/06/16 02:38:53;;;;;;;;;;;;;;;;;;7367119;19;1601;-64
2023/06/16 02:41:21;;;;;;;;;;;;;;;;;;7363719;19;2031;-64
2023/06/16 02:43:49;;;;;;;;;;;;;;;;;;7366667;19;1815;-65
2023/06/16 02:46:17;;;;;;;;;;;;;;;;;;7366359;19;1590;-64
2023/06/16 02:48:46;;;;;;;;;;;;;;;;;;7363126;19;2028;-65
2023/06/16 02:51:14;;;;;;;;;;;;;;;;;;7367082;19;1517;-64
2023/06/16 02:53:45;;;;;;;;;;;;;;;;;;7365794;19;1673;-65
2023/06/16 02:56:14;;;;;;;;;;;;;;;;;;7365105;19;1767;-64
2023/06/16 02:58:43;;;;;;;;;;;;;;;;;;7364614;19;1473;-64
2023/06/16 03:01:11;;;;;;;;;;;;;;;;;;7362447;19;1697;-64
2023/06/16 03:04:03;;;;;;;;;;;;;;;;;;7364827;19;1812;-65
2023/06/16 03:06:51;;;;;;;;;;;;;;;;;;7368725;19;1577;-65
2023/06/16 03:09:28;;;;;;;;;;;;;;;;;;7363022;19;789;-64
2023/06/16 03:11:57;;;;;;;;;;;;;;;;;;7363405;19;830;-65
2023/06/16 03:14:26;;;;;;;;;;;;;;;;;;7364145;19;1745;-64
2023/06/16 03:16:56;;;;;;;;;;;;;;;;;;7363982;19;1926;-65
2023/06/16 03:19:26;;;;;;;;;;;;;;;;;;7366102;19;1528;-65
2023/06/16 03:21:54;;;;;;;;;;;;;;;;;;7363591;19;1721;-65
2023/06/16 03:24:33;;;;;;;;;;;;;;;;;;7361977;19;1981;-64
2023/06/16 03:27:02;;;;;;;;;;;;;;;;;;7365476;19;1727;-64
2023/06/16 03:29:42;;;;;;;;;;;;;;;;;;7364454;19;1827;-64
2023/06/16 03:32:10;;;;;;;;;;;;;;;;;;7365465;19;1658;-65
2023/06/16 03:34:39;;;;;;;;;;;;;;;;;;7364137;19;1854;-65
2023/06/16 03:37:07;;;;;;;;;;;;;;;;;;7364910;19;1832;-64
2023/06/16 03:39:39;;;;;;;;;;;;;;;;;;7366101;19;1479;-64
2023/06/16 03:42:08;;;;;;;;;;;;;;;;;;7361934;19;770;-65
2023/06/16 03:44:37;;;;;;;;;;;;;;;;;;7361157;19;1819;-64
2023/06/16 03:47:06;;;;;;;;;;;;;;;;;;7363994;19;1715;-64
2023/06/16 03:49:35;;;;;;;;;;;;;;;;;;7360624;19;1834;-64
2023/06/16 03:52:03;;;;;;;;;;;;;;;;;;7363740;19;1884;-64
2023/06/16 03:54:31;;;;;;;;;;;;;;;;;;7365406;19;1546;-64
2023/06/16 03:57:00;;;;;;;;;;;;;;;;;;7363116;19;1670;-64
2023/06/16 03:59:31;;;;;;;;;;;;;;;;;;7364475;19;1740;-65
2023/06/16 04:02:06;;;;;;;;;;;;;;;;;;7361944;19;826;-64
2023/06/16 04:04:34;;;;;;;;;;;;;;;;;;7364378;19;1661;-64
2023/06/16 04:07:03;;;;;;;;;;;;;;;;;;7362114;19;1890;-65
2023/06/16 04:09:31;;;;;;;;;;;;;;;;;;7363399;19;1897;-65
2023/06/16 04:11:59;;;;;;;;;;;;;;;;;;7363684;19;1509;-65
2023/06/16 04:14:27;;;;;;;;;;;;;;;;;;7361113;19;801;-64
2023/06/16 04:16:56;;;;;;;;;;;;;;;;;;7366124;19;1352;-64
2023/06/16 04:19:26;;;;;;;;;;;;;;;;;;7369837;19;801;-64
2023/06/16 04:21:54;;;;;;;;;;;;;;;;;;7368946;19;1804;-64
2023/06/16 04:24:24;;;;;;;;;;;;;;;;;;7370865;19;1956;-65
2023/06/16 04:26:58;;;;;;;;;;;;;;;;;;7369377;19;1776;-63
2023/06/16 04:29:27;;;;;;;;;;;;;;;;;;7368395;19;1858;-64
2023/06/16 04:31:57;;;;;;;;;;;;;;;;;;7369178;19;1912;-64
2023/06/16 04:34:25;;;;;;;;;;;;;;;;;;7370209;19;1664;-64
2023/06/16 04:36:57;;;;;;;;;;;;;;;;;;7368428;19;1489;-63
2023/06/16 04:39:30;;;;;;;;;;;;;;;;;;7370075;19;1884;-64
2023/06/16 04:41:59;;;;;;;;;;;;;;;;;;7369926;19;1701;-63
2023/06/16 04:44:29;;;;;;;;;;;;;;;;;;7366750;19;794;-64
2023/06/16 04:46:57;;;;;;;;;;;;;;;;;;7369984;19;1789;-65
2023/06/16 04:49:25;;;;;;;;;;;;;;;;;;7367391;19;1850;-64
2023/06/16 04:51:54;;;;;;;;;;;;;;;;;;7366674;19;836;-64
2023/06/16 04:54:22;;;;;;;;;;;;;;;;;;7367871;19;1941;-64
2023/06/16 04:56:52;;;;;;;;;;;;;;;;;;7370360;19;1910;-64
2023/06/16 04:59:20;;;;;;;;;;;;;;;;;;7366738;19;819;-64
2023/06/16 05:01:49;;;;;;;;;;;;;;;;;;7368853;19;1827;-64
2023/06/16 05:04:17;;;;;;;;;;;;;;;;;;7366534;19;1739;-64
2023/06/16 05:06:46;;;;;;;;;;;;;;;;;;7367699;19;1714;-63
2023/06/16 05:09:15;;;;;;;;;;;;;;;;;;7367138;19;2098;-64
2023/06/16 05:11:43;;;;;;;;;;;;;;;;;;7372196;19;1216;-64
2023/06/16 05:14:11;;;;;;;;;;;;;;;;;;7366335;19;1767;-64
2023/06/16 05:16:39;;;;;;;;;;;;;;;;;;7368173;19;1514;-63
2023/06/16 05:19:07;;;;;;;;;;;;;;;;;;7368380;19;1604;-63
2023/06/16 05:21:39;;;;;;;;;;;;;;;;;;7369801;19;1858;-63
2023/06/16 05:24:07;;;;;;;;;;;;;;;;;;7369218;19;1758;-64
2023/06/16 05:26:35;;;;;;;;;;;;;;;;;;7368309;19;1236;-64
2023/06/16 05:29:04;;;;;;;;;;;;;;;;;;7362607;19;1847;-63
2023/06/16 05:31:34;;;;;;;;;;;;;;;;;;7366012;19;1819;-63
2023/06/16 05:34:02;;;;;;;;;;;;;;;;;;7366360;19;1643;-63
2023/06/16 05:36:34;;;;;;;;;;;;;;;;;;7367462;19;1625;-64
2023/06/16 05:39:03;;;;;;;;;;;;;;;;;;7365803;19;1663;-64
2023/06/16 05:41:31;;;;;;;;;;;;;;;;;;7368207;19;1661;-65
2023/06/16 05:44:00;;;;;;;;;;;;;;;;;;7365419;19;2037;-66
2023/06/16 05:46:29;;;;;;;;;;;;;;;;;;7364753;19;1241;-63
2023/06/16 05:48:58;;;;;;;;;;;;;;;;;;7361885;19;1846;-66
2023/06/16 05:51:26;;;;;;;;;;;;;;;;;;7365816;19;719;-66
2023/06/16 05:53:55;;;;;;;;;;;;;;;;;;7364628;19;889;-66
2023/06/16 05:56:26;;;;;;;;;;;;;;;;;;7364594;19;846;-64
2023/06/16 05:58:55;;;;;;;;;;;;;;;;;;7362394;19;1273;-65
2023/06/16 06:01:23;;;;;;;;;;;;;;;;;;7366184;19;782;-64
2023/06/16 06:03:51;;;;;;;;;;;;;;;;;;7364824;19;786;-66
2023/06/16 06:06:21;;;;;;;;;;;;;;;;;;7364433;19;811;-65
2023/06/16 06:08:50;;;;;;;;;;;;;;;;;;7360828;19;1870;-65
2023/06/16 06:11:21;;;;;;;;;;;;;;;;;;7369049;19;1357;-65
2023/06/16 06:13:49;;;;;;;;;;;;;;;;;;7371133;19;1600;-64
2023/06/16 06:16:17;;;;;;;;;;;;;;;;;;7367191;19;2105;-64
2023/06/16 06:18:48;;;;;;;;;;;;;;;;;;7366855;19;1511;-65
2023/06/16 06:21:16;;;;;;;;;;;;;;;;;;7367335;19;1932;-64
2023/06/16 06:23:44;;;;;;;;;;;;;;;;;;7367964;19;1897;-66
2023/06/16 06:26:13;;;;;;;;;;;;;;;;;;7366529;19;1583;-64
2023/06/16 06:28:41;;;;;;;;;;;;;;;;;;7366172;19;2052;-65
2023/06/16 06:31:10;;;;;;;;;;;;;;;;;;7365598;19;794;-65
2023/06/16 06:33:39;;;;;;;;;;;;;;;;;;7366650;19;1592;-65
2023/06/16 06:36:08;;;;;;;;;;;;;;;;;;7367370;19;1507;-64
2023/06/16 06:38:37;;;;;;;;;;;;;;;;;;7361022;19;1344;-64
2023/06/16 06:41:05;;;;;;;;;;;;;;;;;;7365791;19;783;-64
2023/06/16 06:43:33;;;;;;;;;;;;;;;;;;7364449;19;1681;-65
2023/06/16 06:46:09;;;;;;;;;;;;;;;;;;7367183;19;1744;-65
2023/06/16 06:48:43;;;;;;;;;;;;;;;;;;7361576;19;2093;-65
2023/06/16 06:51:14;;;;;;;;;;;;;;;;;;7367041;19;1672;-66
2023/06/16 06:53:42;;;;;;;;;;;;;;;;;;7368987;19;1552;-64
2023/06/16 06:56:10;;;;;;;;;;;;;;;;;;7369082;19;1629;-64
2023/06/16 06:58:41;;;;;;;;;;;;;;;;;;7366935;19;1453;-64
2023/06/16 07:01:09;;;;;;;;;;;;;;;;;;7364133;19;1841;-65
2023/06/16 07:03:37;;;;;;;;;;;;;;;;;;7370328;19;1758;-65
2023/06/16 07:06:06;;;;;;;;;;;;;;;;;;7365520;19;1660;-65
2023/06/16 07:08:34;;;;;;;;;;;;;;;;;;7366704;19;1846;-65
2023/06/16 07:11:02;;;;;;;;;;;;;;;;;;7364915;19;823;-65
2023/06/16 07:13:30;;;;;;;;;;;;;;;;;;7364510;19;858;-65
2023/06/16 07:15:58;;;;;;;;;;;;;;;;;;7367430;19;1620;-65
2023/06/16 07:18:26;;;;;;;;;;;;;;;;;;7366037;19;1616;-66
2023/06/16 07:20:55;;;;;;;;;;;;;;;;;;7366939;19;1437;-65
2023/06/16 07:23:25;;;;;;;;;;;;;;;;;;7368136;19;1713;-65
2023/06/16 07:25:53;;;;;;;;;;;;;;;;;;7366778;19;1724;-65
2023/06/16 07:28:21;;;;;;;;;;;;;;;;;;7362248;19;1870;-65
2023/06/16 07:30:50;;;;;;;;;;;;;;;;;;7369397;19;1510;-65
2023/06/16 07:33:18;;;;;;;;;;;;;;;;;;7364995;19;966;-65
2023/06/16 07:35:46;;;;;;;;;;;;;;;;;;7364344;19;810;-65
2023/06/16 07:38:14;;;;;;;;;;;;;;;;;;7366626;19;2109;-65
2023/06/16 07:40:42;;;;;;;;;;;;;;;;;;7368184;19;1677;-65
2023/06/16 07:43:10;;;;;;;;;;;;;;;;;;7366020;19;1985;-65
2023/06/16 07:45:38;;;;;;;;;;;;;;;;;;7367898;19;1955;-65
2023/06/16 07:48:08;;;;;;;;;;;;;;;;;;7367078;19;1629;-65
2023/06/16 07:50:37;;;;;;;;;;;;;;;;;;7367153;19;1852;-65
2023/06/16 07:53:05;;;;;;;;;;;;;;;;;;7371568;19;780;-66
2023/06/16 07:55:33;;;;;;;;;;;;;;;;;;7371091;19;884;-66
2023/06/16 07:58:02;;;;;;;;;;;;;;;;;;7368652;19;1321;-64
2023/06/16 08:00:30;;;;;;;;;;;;;;;;;;7370535;19;878;-64
2023/06/16 08:02:58;;;;;;;;;;;;;;;;;;7371325;19;826;-64
2023/06/16 08:05:26;;;;;;;;;;;;;;;;;;7371801;19;815;-64
2023/06/16 08:07:54;;;;;;;;;;;;;;;;;;7370917;19;1286;-64
2023/06/16 08:10:23;;;;;;;;;;;;;;;;;;7371238;19;1854;-64
2023/06/16 08:12:51;;;;;;;;;;;;;;;;;;7370147;19;856;-65
2023/06/16 08:15:20;;;;;;;;;;;;;;;;;;7370802;19;820;-64
2023/06/16 08:17:48;;;;;;;;;;;;;;;;;;7368940;19;1337;-64
2023/06/16 08:20:16;;;;;;;;;;;;;;;;;;7369678;19;870;-64
2023/06/16 08:22:44;;;;;;;;;;;;;;;;;;7369861;19;868;-64
2023/06/16 08:25:12;;;;;;;;;;;;;;;;;;7369955;19;817;-64
2023/06/16 08:27:40;;;;;;;;;;;;;;;;;;7367939;19;1282;-64
2023/06/16 08:30:09;;;;;;;;;;;;;;;;;;7368386;19;1839;-64
2023/06/16 08:32:37;;;;;;;;;;;;;;;;;;7369103;19;859;-64
2023/06/16 08:35:05;;;;;;;;;;;;;;;;;;7368410;19;829;-64
2023/06/16 08:37:33;;;;;;;;;;;;;;;;;;7367871;19;1239;-65
2023/06/16 08:40:04;;;;;;;;;;;;;;;;;;7369065;19;817;-64
2023/06/16 08:42:32;;;;;;;;;;;;;;;;;;7369469;19;737;-64
2023/06/16 08:45:01;;;;;;;;;;;;;;;;;;7369029;19;790;-64
2023/06/16 08:47:29;;;;;;;;;;;;;;;;;;7367682;19;1264;-64
2023/06/16 08:49:58;;;;;;;;;;;;;;;;;;7366549;19;1853;-64
2023/06/16 08:52:26;;;;;;;;;;;;;;;;;;7368646;19;839;-64
2023/06/16 08:54:57;;;;;;;;;;;;;;;;;;7368680;19;825;-65
2023/06/16 08:57:25;;;;;;;;;;;;;;;;;;7367761;19;1713;-64
2023/06/16 08:59:55;;;;;;;;;;;;;;;;;;7368024;19;805;-65
2023/06/16 09:02:23;;;;;;;;;;;;;;;;;;7365289;19;736;-65
2023/06/16 09:04:53;;;;;;;;;;;;;;;;;;7368502;19;763;-65
2023/06/16 09:07:22;;;;;;;;;;;;;;;;;;7367736;19;1313;-65
2023/06/16 09:09:50;;;;;;;;;;;;;;;;;;7366853;19;1839;-65
2023/06/16 09:12:18;;;;;;;;;;;;;;;;;;7367919;19;853;-65
2023/06/16 09:14:49;;;;;;;;;;;;;;;;;;7367500;19;833;-65
2023/06/16 09:17:18;;;;;;;;;;;;;;;;;;7366922;19;1344;-65
2023/06/16 09:19:47;;;;;;;;;;;;;;;;;;7365849;19;1702;-65
2023/06/16 09:22:18;;;;;;;;;;;;;;;;;;7370514;19;1473;-65
2023/06/16 09:24:46;;;;;;;;;;;;;;;;;;7369690;19;2032;-65
2023/06/16 09:27:14;;;;;;;;;;;;;;;;;;7370452;19;1807;-65
2023/06/16 09:29:43;;;;;;;;;;;;;;;;;;7370052;19;1846;-65
2023/06/16 09:32:11;;;;;;;;;;;;;;;;;;7370372;19;2179;-64
2023/06/16 09:34:40;;;;;;;;;;;;;;;;;;7369550;19;1543;-65
2023/06/16 09:37:08;;;;;;;;;;;;;;;;;;7369439;19;1635;-64
2023/06/16 09:39:36;;;;;;;;;;;;;;;;;;7366866;19;887;-64
2023/06/16 09:42:05;;;;;;;;;;;;;;;;;;7366407;19;873;-65
2023/06/16 09:44:33;;;;;;;;;;;;;;;;;;7366736;19;869;-65
2023/06/16 09:47:01;;;;;;;;;;;;;;;;;;7366162;19;1295;-65
2023/06/16 09:49:29;;;;;;;;;;;;;;;;;;7366016;19;1841;-65
2023/06/16 09:51:58;;;;;;;;;;;;;;;;;;7367907;19;771;-65
2023/06/16 09:54:26;;;;;;;;;;;;;;;;;;7367729;19;810;-65
2023/06/16 09:56:55;;;;;;;;;;;;;;;;;;7367876;19;1393;-65
2023/06/16 09:59:23;;;;;;;;;;;;;;;;;;7368551;19;792;-65
2023/06/16 10:01:52;;;;;;;;;;;;;;;;;;7367885;19;1833;-65
2023/06/16 10:04:20;;;;;;;;;;;;;;;;;;7371095;19;1808;-65
2023/06/16 10:06:48;;;;;;;;;;;;;;;;;;7369199;19;1767;-65
2023/06/16 10:09:16;;;;;;;;;;;;;;;;;;7366786;19;1877;-65
2023/06/16 10:11:45;;;;;;;;;;;;;;;;;;7370785;19;1661;-65
2023/06/16 10:14:13;;;;;;;;;;;;;;;;;;7365189;19;1770;-66
2023/06/16 10:16:42;;;;;;;;;;;;;;;;;;7368917;19;1633;-66
2023/06/16 10:19:10;;;;;;;;;;;;;;;;;;7367581;19;1336;-65
2023/06/16 10:21:38;;;;;;;;;;;;;;;;;;7366418;19;780;-66
2023/06/16 10:24:06;;;;;;;;;;;;;;;;;;7365439;19;1759;-66
2023/06/16 10:26:34;;;;;;;;;;;;;;;;;;7369534;19;1648;-65
2023/06/16 10:29:03;;;;;;;;;;;;;;;;;;7362866;19;1290;-65
2023/06/16 10:31:31;;;;;;;;;;;;;;;;;;7365605;19;1983;-65
2023/06/16 10:34:00;;;;;;;;;;;;;;;;;;7368793;19;1632;-66
2023/06/16 10:36:28;;;;;;;;;;;;;;;;;;7364842;19;793;-66
2023/06/16 10:38:56;;;;;;;;;;;;;;;;;;7365787;19;1834;-67
2023/06/16 10:41:24;;;;;;;;;;;;;;;;;;7367064;19;1822;-66
2023/06/16 10:43:52;;;;;;;;;;;;;;;;;;7368573;19;1737;-65
2023/06/16 10:46:21;;;;;;;;;;;;;;;;;;7368171;19;1475;-65
2023/06/16 10:48:49;;;;;;;;;;;;;;;;;;7364709;19;1988;-66
2023/06/16 10:51:18;;;;;;;;;;;;;;;;;;7366178;19;1853;-65
2023/06/16 10:53:46;;;;;;;;;;;;;;;;;;7365101;19;783;-65
2023/06/16 10:56:14;;;;;;;;;;;;;;;;;;7367504;19;1819;-65
2023/06/16 10:58:42;;;;;;;;;;;;;;;;;;7366037;19;1908;-66
2023/06/16 11:01:11;;;;;;;;;;;;;;;;;;7364614;19;881;-66
2023/06/16 11:03:39;;;;;;;;;;;;;;;;;;7364931;19;850;-65
2023/06/16 11:06:07;;;;;;;;;;;;;;;;;;7362636;19;1792;-64
2023/06/16 11:08:35;;;;;;;;;;;;;;;;;;7365875;19;1759;-65
2023/06/16 11:11:03;;;;;;;;;;;;;;;;;;7365743;19;1826;-65
2023/06/16 11:13:32;;;;;;;;;;;;;;;;;;7364903;19;1854;-65
2023/06/16 11:16:00;;;;;;;;;;;;;;;;;;7366614;19;1660;-65
2023/06/16 11:18:28;;;;;;;;;;;;;;;;;;7365435;19;1826;-66
2023/06/16 11:20:56;;;;;;;;;;;;;;;;;;7368832;19;1665;-64
2023/06/16 11:23:24;;;;;;;;;;;;;;;;;;7370696;19;1212;-65
2023/06/16 11:25:52;;;;;;;;;;;;;;;;;;7374567;19;1803;-65
2023/06/16 11:28:20;;;;;;;;;;;;;;;;;;7372802;19;1596;-65
2023/06/16 11:30:48;;;;;;;;;;;;;;;;;;7373260;19;1846;-66
2023/06/16 11:33:16;;;;;;;;;;;;;;;;;;7372687;19;1669;-66
2023/06/16 11:35:45;;;;;;;;;;;;;;;;;;7374985;19;1299;-65
2023/06/16 11:38:14;;;;;;;;;;;;;;;;;;7371338;19;1838;-66
2023/06/16 11:40:42;;;;;;;;;;;;;;;;;;7375089;19;1705;-66
2023/06/16 11:43:10;;;;;;;;;;;;;;;;;;7372508;19;1806;-67
2023/06/16 11:45:39;;;;;;;;;;;;;;;;;;7373802;19;1602;-64
2023/06/16 11:48:07;;;;;;;;;;;;;;;;;;7368284;19;2120;-64
2023/06/16 11:50:35;;;;;;;;;;;;;;;;;;7372384;19;1842;-63
2023/06/16 11:53:03;;;;;;;;;;;;;;;;;;7370260;19;805;-64
2023/06/16 11:55:31;;;;;;;;;;;;;;;;;;7370465;19;829;-64
2023/06/16 11:57:59;;;;;;;;;;;;;;;;;;7371448;19;1815;-65
2023/06/16 12:00:28;;;;;;;;;;;;;;;;;;7372804;19;1604;-65
2023/06/16 12:02:56;;;;;;;;;;;;;;;;;;7373417;19;1397;-64
2023/06/16 12:05:25;;;;;;;;;;;;;;;;;;7373459;19;1715;-65
2023/06/16 12:07:53;;;;;;;;;;;;;;;;;;7369056;19;1326;-64
2023/06/16 12:10:21;;;;;;;;;;;;;;;;;;7368985;19;1846;-65
2023/06/16 12:12:50;;;;;;;;;;;;;;;;;;7369727;19;786;-65
2023/06/16 12:15:18;;;;;;;;;;;;;;;;;;7369657;19;845;-65
2023/06/16 12:17:47;;;;;;;;;;;;;;;;;;7367507;19;1331;-65
2023/06/16 12:20:15;;;;;;;;;;;;;;;;;;7371596;19;1839;-65
2023/06/16 12:22:44;;;;;;;;;;;;;;;;;;7373237;19;1809;-65
2023/06/16 12:25:13;;;;;;;;;;;;;;;;;;7372820;19;2083;-65
2023/06/16 12:27:42;;;;;;;;;;;;;;;;;;7372286;19;1461;-64
2023/06/16 12:30:10;;;;;;;;;;;;;;;;;;7370241;19;1854;-65
2023/06/16 12:32:39;;;;;;;;;;;;;;;;;;7370670;19;2019;-64
2023/06/16 12:35:07;;;;;;;;;;;;;;;;;;7370093;19;2058;-65
2023/06/16 12:37:35;;;;;;;;;;;;;;;;;;7367255;19;1677;-65
2023/06/16 12:40:03;;;;;;;;;;;;;;;;;;7373163;19;1911;-65
2023/06/16 12:42:32;;;;;;;;;;;;;;;;;;7374427;19;1262;-65
2023/06/16 12:45:02;;;;;;;;;;;;;;;;;;7370120;19;853;-66
2023/06/16 12:47:30;;;;;;;;;;;;;;;;;;7368488;19;1335;-65
2023/06/16 12:49:58;;;;;;;;;;;;;;;;;;7369345;19;1855;-65
2023/06/16 12:52:26;;;;;;;;;;;;;;;;;;7371392;19;1580;-65
2023/06/16 12:54:54;;;;;;;;;;;;;;;;;;7371855;19;1663;-65
2023/06/16 12:57:23;;;;;;;;;;;;;;;;;;7367392;19;1723;-65
2023/06/16 12:59:51;;;;;;;;;;;;;;;;;;7370822;19;1708;-66
2023/06/16 13:02:19;;;;;;;;;;;;;;;;;;7370647;19;1476;-65
2023/06/16 13:04:47;;;;;;;;;;;;;;;;;;7368765;19;877;-66
2023/06/16 13:07:15;;;;;;;;;;;;;;;;;;7367389;19;1280;-66
2023/06/16 13:09:44;;;;;;;;;;;;;;;;;;7369157;19;1570;-65
2023/06/16 13:12:12;;;;;;;;;;;;;;;;;;7368545;19;2318;-66
2023/06/16 13:14:41;;;;;;;;;;;;;;;;;;7370593;19;2073;-66
2023/06/16 13:17:09;;;;;;;;;;;;;;;;;;7368389;19;1630;-66
2023/06/16 13:19:38;;;;;;;;;;;;;;;;;;7370432;19;2029;-66
2023/06/16 13:22:07;;;;;;;;;;;;;;;;;;7371268;19;1652;-66
2023/06/16 13:24:35;;;;;;;;;;;;;;;;;;7369627;19;1668;-65
2023/06/16 13:27:03;;;;;;;;;;;;;;;;;;7369987;19;1930;-65
2023/06/16 13:29:31;;;;;;;;;;;;;;;;;;7370129;19;1771;-65
2023/06/16 13:31:59;;;;;;;;;;;;;;;;;;7367449;19;1856;-65
2023/06/16 13:34:28;;;;;;;;;;;;;;;;;;7367124;19;1861;-66
2023/06/16 13:36:56;;;;;;;;;;;;;;;;;;7369882;19;1635;-65
2023/06/16 13:39:24;;;;;;;;;;;;;;;;;;7368931;19;1965;-66
2023/06/16 13:41:52;;;;;;;;;;;;;;;;;;7371319;19;1827;-65
2023/06/16 13:44:20;;;;;;;;;;;;;;;;;;7369963;19;1693;-65
2023/06/16 13:46:49;;;;;;;;;;;;;;;;;;7370816;19;1501;-67
2023/06/16 13:49:17;;;;;;;;;;;;;;;;;;7364336;19;1299;-66
2023/06/16 13:51:45;;;;;;;;;;;;;;;;;;7364431;19;1885;-67
2023/06/16 13:54:13;;;;;;;;;;;;;;;;;;7366764;19;813;-66
2023/06/16 13:56:41;;;;;;;;;;;;;;;;;;7368325;19;1975;-66
2023/06/16 13:59:10;;;;;;;;;;;;;;;;;;7366849;19;1501;-66
2023/06/16 14:01:38;;;;;;;;;;;;;;;;;;7366905;19;838;-65
2023/06/16 14:04:06;;;;;;;;;;;;;;;;;;7367730;19;1577;-66
2023/06/16 14:06:34;;;;;;;;;;;;;;;;;;7370044;19;1649;-66
2023/06/16 14:09:02;;;;;;;;;;;;;;;;;;7364104;19;1853;-66
2023/06/16 14:11:30;;;;;;;;;;;;;;;;;;7368119;19;2204;-67
2023/06/16 14:13:58;;;;;;;;;;;;;;;;;;7369062;19;1257;-66
2023/06/16 14:16:27;;;;;;;;;;;;;;;;;;7367913;19;1862;-67
2023/06/16 14:18:55;;;;;;;;;;;;;;;;;;7366226;19;1488;-67
2023/06/16 14:21:23;;;;;;;;;;;;;;;;;;7366779;19;871;-66
2023/06/16 14:23:51;;;;;;;;;;;;;;;;;;7365638;19;1827;-66
2023/06/16 14:26:20;;;;;;;;;;;;;;;;;;7368872;19;1479;-66
2023/06/16 14:28:49;;;;;;;;;;;;;;;;;;7366361;19;1582;-66
2023/06/16 14:31:17;;;;;;;;;;;;;;;;;;7367515;19;1850;-63
2023/06/16 14:33:46;;;;;;;;;;;;;;;;;;7365672;19;798;-65
2023/06/16 14:36:14;;;;;;;;;;;;;;;;;;7365033;19;1804;-64
2023/06/16 14:38:42;;;;;;;;;;;;;;;;;;7367157;19;1456;-64
2023/06/16 14:41:10;;;;;;;;;;;;;;;;;;7369194;19;1578;-64
2023/06/16 14:43:39;;;;;;;;;;;;;;;;;;7366593;19;928;-64
2023/06/16 14:46:07;;;;;;;;;;;;;;;;;;7368933;19;1729;-65
2023/06/16 14:48:35;;;;;;;;;;;;;;;;;;7366069;19;1597;-65
2023/06/16 14:51:03;;;;;;;;;;;;;;;;;;7366005;19;2048;-64
2023/06/16 14:53:31;;;;;;;;;;;;;;;;;;7369140;19;1806;-64
2023/06/16 14:55:59;;;;;;;;;;;;;;;;;;7367447;19;1586;-63
2023/06/16 14:58:27;;;;;;;;;;;;;;;;;;7366342;19;1487;-64
2023/06/16 15:00:56;;;;;;;;;;;;;;;;;;7365129;19;1826;-65
2023/06/16 15:03:24;;;;;;;;;;;;;;;;;;7366936;19;1647;-64
2023/06/16 15:05:52;;;;;;;;;;;;;;;;;;7367817;19;1993;-64
2023/06/16 15:08:20;;;;;;;;;;;;;;;;;;7362987;19;1271;-64
2023/06/16 15:10:49;;;;;;;;;;;;;;;;;;7364235;19;1848;-64
2023/06/16 15:13:17;;;;;;;;;;;;;;;;;;7363258;19;833;-65
2023/06/16 15:15:45;;;;;;;;;;;;;;;;;;7364261;19;787;-65
2023/06/16 15:18:13;;;;;;;;;;;;;;;;;;7360585;19;1231;-65
2023/06/16 15:20:41;;;;;;;;;;;;;;;;;;7364575;19;802;-65
2023/06/16 15:23:09;;;;;;;;;;;;;;;;;;7364421;19;819;-64
2023/06/16 15:25:37;;;;;;;;;;;;;;;;;;7364337;19;763;-65
2023/06/16 15:28:06;;;;;;;;;;;;;;;;;;7361966;19;1368;-64
2023/06/16 15:30:34;;;;;;;;;;;;;;;;;;7362449;19;1878;-64
2023/06/16 15:33:02;;;;;;;;;;;;;;;;;;7361709;19;1862;-65
2023/06/16 15:35:30;;;;;;;;;;;;;;;;;;7365994;19;1733;-64
2023/06/16 15:37:58;;;;;;;;;;;;;;;;;;7363488;19;1901;-64
2023/06/16 15:40:26;;;;;;;;;;;;;;;;;;7366539;19;1667;-64
2023/06/16 15:42:54;;;;;;;;;;;;;;;;;;7363777;19;1785;-64
2023/06/16 15:45:23;;;;;;;;;;;;;;;;;;7366874;19;1697;-64
2023/06/16 15:47:51;;;;;;;;;;;;;;;;;;7365417;19;1627;-64
2023/06/16 15:50:19;;;;;;;;;;;;;;;;;;7366003;19;1642;-64
2023/06/16 15:52:47;;;;;;;;;;;;;;;;;;7360653;19;1842;-65
2023/06/16 15:55:15;;;;;;;;;;;;;;;;;;7362381;19;846;-65
2023/06/16 15:57:43;;;;;;;;;;;;;;;;;;7360771;19;1305;-65
2023/06/16 16:00:11;;;;;;;;;;;;;;;;;;7364489;19;898;-65
2023/06/16 16:02:39;;;;;;;;;;;;;;;;;;7364660;19;1786;-64
2023/06/16 16:05:08;;;;;;;;;;;;;;;;;;7362031;19;787;-64
2023/06/16 16:07:36;;;;;;;;;;;;;;;;;;7361404;19;1324;-64
2023/06/16 16:10:04;;;;;;;;;;;;;;;;;;7362943;19;769;-65
2023/06/16 16:12:32;;;;;;;;;;;;;;;;;;7367989;19;1846;-65
2023/06/16 16:15:00;;;;;;;;;;;;;;;;;;7368785;19;850;-64
2023/06/16 16:17:28;;;;;;;;;;;;;;;;;;7371410;19;1310;-64
2023/06/16 16:19:56;;;;;;;;;;;;;;;;;;7368736;19;802;-65
2023/06/16 16:22:25;;;;;;;;;;;;;;;;;;7368899;19;822;-65
2023/06/16 16:24:53;;;;;;;;;;;;;;;;;;7370830;19;2082;-65
2023/06/16 16:27:21;;;;;;;;;;;;;;;;;;7369705;19;2071;-65
2023/06/16 16:29:49;;;;;;;;;;;;;;;;;;7371835;19;1943;-64
2023/06/16 16:32:17;;;;;;;;;;;;;;;;;;7370410;19;1849;-65
2023/06/16 16:34:45;;;;;;;;;;;;;;;;;;7369381;19;1998;-65
2023/06/16 16:37:13;;;;;;;;;;;;;;;;;;7370761;19;1716;-65
2023/06/16 16:39:42;;;;;;;;;;;;;;;;;;7367886;19;842;-64
2023/06/16 16:42:10;;;;;;;;;;;;;;;;;;7369730;19;1877;-65
2023/06/16 16:44:38;;;;;;;;;;;;;;;;;;7372023;19;1632;-65
2023/06/16 16:47:06;;;;;;;;;;;;;;;;;;7367895;19;1650;-65
2023/06/16 16:49:34;;;;;;;;;;;;;;;;;;7368394;19;813;-65
2023/06/16 16:52:02;;;;;;;;;;;;;;;;;;7365588;19;1845;-65
2023/06/16 16:54:30;;;;;;;;;;;;;;;;;;7368012;19;823;-65
2023/06/16 16:56:59;;;;;;;;;;;;;;;;;;7367062;19;1269;-65
2023/06/16 16:59:27;;;;;;;;;;;;;;;;;;7368594;19;847;-65
2023/06/16 17:01:56;;;;;;;;;;;;;;;;;;7368805;19;899;-65
2023/06/16 17:04:24;;;;;;;;;;;;;;;;;;7368099;19;853;-65
2023/06/16 17:06:53;;;;;;;;;;;;;;;;;;7367470;19;935;-65
2023/06/16 17:09:21;;;;;;;;;;;;;;;;;;7365380;19;1337;-65
2023/06/16 17:11:49;;;;;;;;;;;;;;;;;;7367267;19;1841;-65
2023/06/16 17:14:18;;;;;;;;;;;;;;;;;;7367898;19;842;-65